sensor_id;sensor_type;location;lat;lon;timestamp;pressure;altitude;pressure_sealevel;temperature;humidity
69980;BME280;57318;56.232;43.944;2022-11-20T00:01:10;99645.06;;;-8.22;73.11
69980;BME280;57318;56.232;43.944;2022-11-20T00:03:36;99641.63;;;-8.06;72.89
69980;BME280;57318;56.232;43.944;2022-11-20T00:06:08;99642.47;;;-8.02;72.44
69980;BME280;57318;56.232;43.944;2022-11-20T00:08:34;99640.78;;;-8.11;72.45
69980;BME280;57318;56.232;43.944;2022-11-20T00:11:04;99633.91;;;-8.04;72.60
69980;BME280;57318;56.232;43.944;2022-11-20T00:13:31;99629.59;;;-8.02;72.71
69980;BME280;57318;56.232;43.944;2022-11-20T00:15:58;99633.91;;;-8.06;72.50
69980;BME280;57318;56.232;43.944;2022-11-20T00:18:24;99640.78;;;-8.14;72.86
69980;BME280;57318;56.232;43.944;2022-11-20T00:20:50;99642.47;;;-8.01;72.79
69980;BME280;57318;56.232;43.944;2022-11-20T00:23:16;99634.75;;;-8.19;73.29
69980;BME280;57318;56.232;43.944;2022-11-20T00:25:41;99621.03;;;-8.30;73.41
69980;BME280;57318;56.232;43.944;2022-11-20T00:28:07;99634.75;;;-8.05;72.88
69980;BME280;57318;56.232;43.944;2022-11-20T00:30:32;99627.00;;;-8.13;73.23
69980;BME280;57318;56.232;43.944;2022-11-20T00:32:58;99626.16;;;-8.12;72.36
69980;BME280;57318;56.232;43.944;2022-11-20T00:35:24;99623.59;;;-8.06;72.51
69980;BME280;57318;56.232;43.944;2022-11-20T00:37:49;99624.44;;;-8.21;71.92
69980;BME280;57318;56.232;43.944;2022-11-20T00:40:15;99632.19;;;-8.28;73.27
69980;BME280;57318;56.232;43.944;2022-11-20T00:42:41;99637.38;;;-8.31;73.21
69980;BME280;57318;56.232;43.944;2022-11-20T00:45:06;99632.22;;;-8.31;73.51
69980;BME280;57318;56.232;43.944;2022-11-20T00:47:32;99645.94;;;-8.20;73.27
69980;BME280;57318;56.232;43.944;2022-11-20T00:49:58;99640.75;;;-8.03;72.73
69980;BME280;57318;56.232;43.944;2022-11-20T00:52:23;99637.31;;;-8.04;72.89
69980;BME280;57318;56.232;43.944;2022-11-20T00:54:49;99627.91;;;-8.17;72.47
69980;BME280;57318;56.232;43.944;2022-11-20T00:57:15;99621.03;;;-8.30;73.08
69980;BME280;57318;56.232;43.944;2022-11-20T00:59:40;99614.16;;;-8.42;73.76
69980;BME280;57318;56.232;43.944;2022-11-20T01:02:06;99619.28;;;-8.25;73.68
69980;BME280;57318;56.232;43.944;2022-11-20T01:04:31;99614.13;;;-8.25;72.99
69980;BME280;57318;56.232;43.944;2022-11-20T01:06:57;99611.56;;;-8.25;73.44
69980;BME280;57318;56.232;43.944;2022-11-20T01:09:23;99604.75;;;-8.59;73.90
69980;BME280;57318;56.232;43.944;2022-11-20T01:11:48;99606.47;;;-8.70;74.98
69980;BME280;57318;56.232;43.944;2022-11-20T01:14:16;99604.75;;;-8.49;74.80
69980;BME280;57318;56.232;43.944;2022-11-20T01:16:49;99605.59;;;-8.52;74.36
69980;BME280;57318;56.232;43.944;2022-11-20T01:19:19;99615.88;;;-8.40;74.55
69980;BME280;57318;56.232;43.944;2022-11-20T01:21:48;99601.28;;;-8.42;73.87
69980;BME280;57318;56.232;43.944;2022-11-20T01:24:16;99613.28;;;-8.30;73.67
69980;BME280;57318;56.232;43.944;2022-11-20T01:26:43;99622.75;;;-8.22;73.58
69980;BME280;57318;56.232;43.944;2022-11-20T01:29:13;99632.16;;;-8.10;73.09
69980;BME280;57318;56.232;43.944;2022-11-20T01:31:39;99637.31;;;-8.08;72.63
69980;BME280;57318;56.232;43.944;2022-11-20T01:34:09;99638.22;;;-8.19;72.66
69980;BME280;57318;56.232;43.944;2022-11-20T01:36:36;99625.31;;;-8.14;72.94
69980;BME280;57318;56.232;43.944;2022-11-20T01:39:10;99632.22;;;-8.38;73.61
69980;BME280;57318;56.232;43.944;2022-11-20T01:41:36;99633.94;;;-8.46;74.22
69980;BME280;57318;56.232;43.944;2022-11-20T01:44:23;99628.75;;;-8.40;73.79
69980;BME280;57318;56.232;43.944;2022-11-20T01:47:08;99629.66;;;-8.67;74.53
69980;BME280;57318;56.232;43.944;2022-11-20T01:49:39;99627.94;;;-8.59;74.52
69980;BME280;57318;56.232;43.944;2022-11-20T01:52:16;99613.34;;;-8.77;74.65
69980;BME280;57318;56.232;43.944;2022-11-20T01:54:56;99618.47;;;-8.78;74.99
69980;BME280;57318;56.232;43.944;2022-11-20T01:57:25;99605.63;;;-8.67;74.75
69980;BME280;57318;56.232;43.944;2022-11-20T01:59:57;99608.19;;;-8.77;75.10
69980;BME280;57318;56.232;43.944;2022-11-20T02:02:25;99605.63;;;-8.71;74.93
69980;BME280;57318;56.232;43.944;2022-11-20T02:04:51;99597.84;;;-9.04;75.09
69980;BME280;57318;56.232;43.944;2022-11-20T02:07:19;99595.25;;;-9.08;75.82
69980;BME280;57318;56.232;43.944;2022-11-20T02:09:45;99588.41;;;-8.98;75.38
69980;BME280;57318;56.232;43.944;2022-11-20T02:12:10;99585.00;;;-8.89;74.96
69980;BME280;57318;56.232;43.944;2022-11-20T02:15:15;99588.41;;;-8.82;74.47
69980;BME280;57318;56.232;43.944;2022-11-20T02:17:41;99584.97;;;-8.91;74.97
69980;BME280;57318;56.232;43.944;2022-11-20T02:20:06;99588.38;;;-9.01;75.61
69980;BME280;57318;56.232;43.944;2022-11-20T02:22:35;99586.72;;;-8.94;76.12
69980;BME280;57318;56.232;43.944;2022-11-20T02:25:03;99582.38;;;-9.08;76.03
69980;BME280;57318;56.232;43.944;2022-11-20T02:27:30;99586.72;;;-8.90;76.07
69980;BME280;57318;56.232;43.944;2022-11-20T02:30:03;99583.22;;;-9.07;75.99
69980;BME280;57318;56.232;43.944;2022-11-20T02:32:36;99597.84;;;-8.95;75.74
69980;BME280;57318;56.232;43.944;2022-11-20T02:35:09;99590.13;;;-8.94;75.68
69980;BME280;57318;56.232;43.944;2022-11-20T02:37:35;99597.00;;;-8.90;75.35
69980;BME280;57318;56.232;43.944;2022-11-20T02:40:02;99588.41;;;-8.96;75.00
69980;BME280;57318;56.232;43.944;2022-11-20T02:42:28;99590.97;;;-8.90;74.88
69980;BME280;57318;56.232;43.944;2022-11-20T02:44:53;99581.53;;;-9.03;75.03
69980;BME280;57318;56.232;43.944;2022-11-20T02:47:19;99584.13;;;-9.00;74.74
69980;BME280;57318;56.232;43.944;2022-11-20T02:49:44;99584.94;;;-9.11;74.68
69980;BME280;57318;56.232;43.944;2022-11-20T02:52:10;99581.50;;;-9.19;75.61
69980;BME280;57318;56.232;43.944;2022-11-20T02:54:35;99588.41;;;-9.15;75.26
69980;BME280;57318;56.232;43.944;2022-11-20T02:57:00;99596.09;;;-9.18;74.92
69980;BME280;57318;56.232;43.944;2022-11-20T02:59:26;99586.66;;;-9.11;74.61
69980;BME280;57318;56.232;43.944;2022-11-20T03:01:51;99596.97;;;-9.13;74.32
69980;BME280;57318;56.232;43.944;2022-11-20T03:04:17;99601.28;;;-8.93;74.15
69980;BME280;57318;56.232;43.944;2022-11-20T03:06:42;99608.13;;;-9.04;74.32
69980;BME280;57318;56.232;43.944;2022-11-20T03:09:08;99606.44;;;-8.93;74.24
69980;BME280;57318;56.232;43.944;2022-11-20T03:11:33;99615.03;;;-8.91;73.99
69980;BME280;57318;56.232;43.944;2022-11-20T03:14:01;99601.25;;;-8.99;74.39
69980;BME280;57318;56.232;43.944;2022-11-20T03:16:27;99597.00;;;-9.00;74.27
69980;BME280;57318;56.232;43.944;2022-11-20T03:18:52;99593.53;;;-8.99;74.82
69980;BME280;57318;56.232;43.944;2022-11-20T03:21:18;99588.38;;;-9.12;74.67
69980;BME280;57318;56.232;43.944;2022-11-20T03:23:44;99592.63;;;-9.23;74.94
69980;BME280;57318;56.232;43.944;2022-11-20T03:26:15;99588.38;;;-9.18;74.84
69980;BME280;57318;56.232;43.944;2022-11-20T03:28:42;99590.94;;;-9.07;74.57
69980;BME280;57318;56.232;43.944;2022-11-20T03:31:12;99583.22;;;-9.07;74.20
69980;BME280;57318;56.232;43.944;2022-11-20T03:33:38;99585.78;;;-9.12;74.45
69980;BME280;57318;56.232;43.944;2022-11-20T03:36:04;99579.78;;;-9.20;74.62
69980;BME280;57318;56.232;43.944;2022-11-20T03:38:30;99577.16;;;-9.34;75.23
69980;BME280;57318;56.232;43.944;2022-11-20T03:41:06;99575.47;;;-9.33;75.22
69980;BME280;57318;56.232;43.944;2022-11-20T03:43:32;99586.66;;;-9.13;74.89
69980;BME280;57318;56.232;43.944;2022-11-20T03:45:58;99579.81;;;-9.08;74.52
69980;BME280;57318;56.232;43.944;2022-11-20T03:48:24;99590.94;;;-9.13;74.33
69980;BME280;57318;56.232;43.944;2022-11-20T03:50:50;99593.53;;;-9.09;74.29
69980;BME280;57318;56.232;43.944;2022-11-20T03:53:15;99591.84;;;-8.93;74.27
69980;BME280;57318;56.232;43.944;2022-11-20T03:55:41;99602.13;;;-8.86;73.68
69980;BME280;57318;56.232;43.944;2022-11-20T03:58:07;99599.59;;;-8.94;73.21
69980;BME280;57318;56.232;43.944;2022-11-20T04:00:32;99597.88;;;-8.86;73.57
69980;BME280;57318;56.232;43.944;2022-11-20T04:02:58;99587.56;;;-8.92;73.60
69980;BME280;57318;56.232;43.944;2022-11-20T04:05:24;99597.84;;;-8.92;73.56
69980;BME280;57318;56.232;43.944;2022-11-20T04:07:50;99602.16;;;-8.96;73.32
69980;BME280;57318;56.232;43.944;2022-11-20T04:10:15;99592.72;;;-8.84;73.76
69980;BME280;57318;56.232;43.944;2022-11-20T04:12:41;99589.28;;;-8.93;73.44
69980;BME280;57318;56.232;43.944;2022-11-20T04:15:06;99591.84;;;-9.03;72.91
69980;BME280;57318;56.232;43.944;2022-11-20T04:17:32;99596.06;;;-9.30;74.23
69980;BME280;57318;56.232;43.944;2022-11-20T04:19:57;99594.34;;;-9.25;74.72
69980;BME280;57318;56.232;43.944;2022-11-20T04:22:23;99586.66;;;-9.23;74.20
69980;BME280;57318;56.232;43.944;2022-11-20T04:24:48;99585.81;;;-9.05;74.15
69980;BME280;57318;56.232;43.944;2022-11-20T04:27:14;99574.66;;;-9.08;73.83
69980;BME280;57318;56.232;43.944;2022-11-20T04:29:39;99575.50;;;-9.21;73.99
69980;BME280;57318;56.232;43.944;2022-11-20T04:32:04;99578.94;;;-9.20;74.07
69980;BME280;57318;56.232;43.944;2022-11-20T04:34:30;99578.91;;;-9.23;74.56
69980;BME280;57318;56.232;43.944;2022-11-20T04:36:55;99577.16;;;-9.35;74.21
69980;BME280;57318;56.232;43.944;2022-11-20T04:39:21;99574.59;;;-9.28;75.13
69980;BME280;57318;56.232;43.944;2022-11-20T04:41:46;99574.59;;;-9.28;74.73
69980;BME280;57318;56.232;43.944;2022-11-20T04:44:12;99575.50;;;-9.27;74.28
69980;BME280;57318;56.232;43.944;2022-11-20T04:46:41;99580.66;;;-9.18;74.42
69980;BME280;57318;56.232;43.944;2022-11-20T04:49:07;99578.97;;;-9.07;74.01
69980;BME280;57318;56.232;43.944;2022-11-20T04:51:33;99577.19;;;-9.23;74.44
69980;BME280;57318;56.232;43.944;2022-11-20T04:53:58;99578.91;;;-9.31;74.07
69980;BME280;57318;56.232;43.944;2022-11-20T04:56:24;99576.34;;;-9.30;74.48
69980;BME280;57318;56.232;43.944;2022-11-20T04:58:49;99588.34;;;-9.27;74.78
69980;BME280;57318;56.232;43.944;2022-11-20T05:01:16;99579.75;;;-9.34;75.07
69980;BME280;57318;56.232;43.944;2022-11-20T05:03:44;99584.06;;;-9.25;74.81
69980;BME280;57318;56.232;43.944;2022-11-20T05:06:11;99583.22;;;-9.24;74.93
69980;BME280;57318;56.232;43.944;2022-11-20T05:08:36;99589.22;;;-9.19;74.89
69980;BME280;57318;56.232;43.944;2022-11-20T05:11:02;99591.81;;;-9.10;74.62
69980;BME280;57318;56.232;43.944;2022-11-20T05:13:28;99589.22;;;-9.22;74.38
69980;BME280;57318;56.232;43.944;2022-11-20T05:15:54;99585.78;;;-9.24;74.27
69980;BME280;57318;56.232;43.944;2022-11-20T05:18:19;99574.63;;;-9.23;74.42
69980;BME280;57318;56.232;43.944;2022-11-20T05:20:45;99576.34;;;-9.19;74.39
69980;BME280;57318;56.232;43.944;2022-11-20T05:23:10;99578.06;;;-9.30;74.10
69980;BME280;57318;56.232;43.944;2022-11-20T05:25:35;99579.75;;;-9.34;74.38
69980;BME280;57318;56.232;43.944;2022-11-20T05:28:01;99582.34;;;-9.17;74.27
69980;BME280;57318;56.232;43.944;2022-11-20T05:30:26;99578.88;;;-9.34;74.54
69980;BME280;57318;56.232;43.944;2022-11-20T05:32:52;99578.91;;;-9.31;74.48
69980;BME280;57318;56.232;43.944;2022-11-20T05:35:17;99581.50;;;-9.27;73.91
69980;BME280;57318;56.232;43.944;2022-11-20T05:37:43;99585.78;;;-9.27;74.38
69980;BME280;57318;56.232;43.944;2022-11-20T05:40:08;99584.91;;;-9.26;74.25
69980;BME280;57318;56.232;43.944;2022-11-20T05:42:34;99586.63;;;-9.28;74.33
69980;BME280;57318;56.232;43.944;2022-11-20T05:45:01;99589.19;;;-9.34;74.47
69980;BME280;57318;56.232;43.944;2022-11-20T05:47:33;99583.16;;;-9.39;74.86
69980;BME280;57318;56.232;43.944;2022-11-20T05:49:59;99589.19;;;-9.28;74.39
69980;BME280;57318;56.232;43.944;2022-11-20T05:52:27;99584.09;;;-9.10;74.74
69980;BME280;57318;56.232;43.944;2022-11-20T05:54:53;99580.66;;;-9.18;74.15
69980;BME280;57318;56.232;43.944;2022-11-20T05:57:18;99580.66;;;-9.12;74.12
69980;BME280;57318;56.232;43.944;2022-11-20T05:59:44;99578.94;;;-9.22;74.11
69980;BME280;57318;56.232;43.944;2022-11-20T06:02:09;99584.94;;;-9.12;73.96
69980;BME280;57318;56.232;43.944;2022-11-20T06:04:35;99581.50;;;-9.16;74.18
69980;BME280;57318;56.232;43.944;2022-11-20T06:07:00;99591.81;;;-9.08;74.22
69980;BME280;57318;56.232;43.944;2022-11-20T06:09:26;99593.53;;;-9.04;74.10
69980;BME280;57318;56.232;43.944;2022-11-20T06:11:51;99588.41;;;-8.95;74.04
69980;BME280;57318;56.232;43.944;2022-11-20T06:14:17;99584.13;;;-8.74;73.57
69980;BME280;57318;56.232;43.944;2022-11-20T06:16:42;99582.44;;;-8.71;72.54
69980;BME280;57318;56.232;43.944;2022-11-20T06:19:08;99581.53;;;-8.79;73.33
69980;BME280;57318;56.232;43.944;2022-11-20T06:21:33;99572.97;;;-8.81;72.33
69980;BME280;57318;56.232;43.944;2022-11-20T06:23:59;99578.97;;;-8.97;73.48
69980;BME280;57318;56.232;43.944;2022-11-20T06:26:25;99578.97;;;-8.97;73.71
69980;BME280;57318;56.232;43.944;2022-11-20T06:28:51;99581.53;;;-8.86;73.03
69980;BME280;57318;56.232;43.944;2022-11-20T06:31:18;99578.97;;;-8.79;72.86
69980;BME280;57318;56.232;43.944;2022-11-20T06:33:44;99586.69;;;-8.79;73.36
69980;BME280;57318;56.232;43.944;2022-11-20T06:36:11;99579.81;;;-8.95;73.25
69980;BME280;57318;56.232;43.944;2022-11-20T06:38:37;99585.00;;;-8.87;73.32
69980;BME280;57318;56.232;43.944;2022-11-20T06:41:03;99576.41;;;-8.90;73.81
69980;BME280;57318;56.232;43.944;2022-11-20T06:43:31;99579.81;;;-8.50;73.73
69980;BME280;57318;56.232;43.944;2022-11-20T06:45:57;99580.72;;;-8.56;72.74
69980;BME280;57318;56.232;43.944;2022-11-20T06:48:23;99581.56;;;-8.60;73.02
69980;BME280;57318;56.232;43.944;2022-11-20T06:50:49;99587.56;;;-8.58;72.73
69980;BME280;57318;56.232;43.944;2022-11-20T06:53:19;99578.97;;;-8.57;72.18
69980;BME280;57318;56.232;43.944;2022-11-20T06:55:47;99583.28;;;-8.44;72.43
69980;BME280;57318;56.232;43.944;2022-11-20T06:59:23;99584.09;;;-8.32;71.92
69980;BME280;57318;56.232;43.944;2022-11-20T07:01:48;99585.81;;;-8.31;71.71
69980;BME280;57318;56.232;43.944;2022-11-20T07:04:14;99585.81;;;-8.31;71.11
69980;BME280;57318;56.232;43.944;2022-11-20T07:06:40;99578.09;;;-8.31;71.49
69980;BME280;57318;56.232;43.944;2022-11-20T07:09:05;99583.19;;;-8.19;71.53
69980;BME280;57318;56.232;43.944;2022-11-20T07:11:31;99581.47;;;-8.08;70.97
69980;BME280;57318;56.232;43.944;2022-11-20T07:13:56;99584.91;;;-8.06;70.49
69980;BME280;57318;56.232;43.944;2022-11-20T07:16:22;99587.44;;;-7.90;69.96
69980;BME280;57318;56.232;43.944;2022-11-20T07:18:48;99596.03;;;-7.94;70.26
69980;BME280;57318;56.232;43.944;2022-11-20T07:21:13;99597.78;;;-8.00;69.99
69980;BME280;57318;56.232;43.944;2022-11-20T07:23:39;99602.94;;;-7.98;70.69
69980;BME280;57318;56.232;43.944;2022-11-20T07:26:08;99610.69;;;-8.17;71.04
69980;BME280;57318;56.232;43.944;2022-11-20T07:28:38;99616.69;;;-7.98;70.38
69980;BME280;57318;56.232;43.944;2022-11-20T07:31:03;99622.66;;;-7.88;70.42
69980;BME280;57318;56.232;43.944;2022-11-20T07:33:30;99632.13;;;-7.82;69.46
69980;BME280;57318;56.232;43.944;2022-11-20T07:35:58;99627.81;;;-7.82;69.21
69980;BME280;57318;56.232;43.944;2022-11-20T07:38:25;99634.69;;;-7.79;68.87
69980;BME280;57318;56.232;43.944;2022-11-20T07:40:54;99633.84;;;-7.81;69.28
69980;BME280;57318;56.232;43.944;2022-11-20T07:43:21;99631.28;;;-7.87;69.33
69980;BME280;57318;56.232;43.944;2022-11-20T07:45:47;99636.44;;;-7.87;69.29
69980;BME280;57318;56.232;43.944;2022-11-20T07:48:13;99634.75;;;-8.02;69.41
69980;BME280;57318;56.232;43.944;2022-11-20T07:50:41;99642.44;;;-7.85;69.79
69980;BME280;57318;56.232;43.944;2022-11-20T07:53:07;99639.88;;;-7.91;69.76
69980;BME280;57318;56.232;43.944;2022-11-20T07:55:33;99632.97;;;-7.78;69.75
69980;BME280;57318;56.232;43.944;2022-11-20T07:57:59;99636.44;;;-7.83;69.51
69980;BME280;57318;56.232;43.944;2022-11-20T08:00:26;99640.69;;;-7.71;69.81
69980;BME280;57318;56.232;43.944;2022-11-20T08:02:51;99640.72;;;-7.77;69.01
69980;BME280;57318;56.232;43.944;2022-11-20T08:05:17;99641.63;;;-7.90;70.12
69980;BME280;57318;56.232;43.944;2022-11-20T08:07:44;99632.97;;;-7.80;70.08
69980;BME280;57318;56.232;43.944;2022-11-20T08:10:12;99645.88;;;-7.89;70.00
69980;BME280;57318;56.232;43.944;2022-11-20T08:12:48;99648.47;;;-7.99;70.29
69980;BME280;57318;56.232;43.944;2022-11-20T08:15:32;99655.34;;;-7.79;70.01
69980;BME280;57318;56.232;43.944;2022-11-20T08:18:08;99660.47;;;-7.71;70.42
69980;BME280;57318;56.232;43.944;2022-11-20T08:20:36;99663.03;;;-7.57;70.28
69980;BME280;57318;56.232;43.944;2022-11-20T08:23:03;99662.94;;;-7.39;69.86
69980;BME280;57318;56.232;43.944;2022-11-20T08:25:31;99663.81;;;-7.31;68.84
69980;BME280;57318;56.232;43.944;2022-11-20T08:28:01;99674.06;;;-7.20;68.53
69980;BME280;57318;56.232;43.944;2022-11-20T08:30:28;99677.53;;;-7.19;68.31
69980;BME280;57318;56.232;43.944;2022-11-20T08:32:54;99681.81;;;-7.18;67.86
69980;BME280;57318;56.232;43.944;2022-11-20T08:35:21;99675.81;;;-7.22;67.56
69980;BME280;57318;56.232;43.944;2022-11-20T08:37:46;99685.28;;;-7.19;68.83
69980;BME280;57318;56.232;43.944;2022-11-20T08:40:12;99687.03;;;-7.32;68.09
69980;BME280;57318;56.232;43.944;2022-11-20T08:42:49;99687.91;;;-7.41;69.43
69980;BME280;57318;56.232;43.944;2022-11-20T08:45:15;99695.66;;;-7.36;68.28
69980;BME280;57318;56.232;43.944;2022-11-20T08:47:41;99682.75;;;-7.43;68.71
69980;BME280;57318;56.232;43.944;2022-11-20T08:50:12;99683.59;;;-7.39;68.89
69980;BME280;57318;56.232;43.944;2022-11-20T08:52:38;99672.50;;;-7.73;69.65
69980;BME280;57318;56.232;43.944;2022-11-20T08:55:04;99673.38;;;-7.59;69.29
69980;BME280;57318;56.232;43.944;2022-11-20T08:57:34;99669.88;;;-7.47;69.01
69980;BME280;57318;56.232;43.944;2022-11-20T09:00:00;99658.72;;;-7.55;69.00
69980;BME280;57318;56.232;43.944;2022-11-20T09:02:27;99665.63;;;-7.59;69.44
69980;BME280;57318;56.232;43.944;2022-11-20T09:04:53;99655.22;;;-7.45;69.39
69980;BME280;57318;56.232;43.944;2022-11-20T09:07:19;99656.09;;;-7.45;69.10
69980;BME280;57318;56.232;43.944;2022-11-20T09:09:45;99666.44;;;-7.46;68.78
69980;BME280;57318;56.232;43.944;2022-11-20T09:12:11;99671.63;;;-7.55;69.29
69980;BME280;57318;56.232;43.944;2022-11-20T09:14:36;99663.84;;;-7.43;68.79
69980;BME280;57318;56.232;43.944;2022-11-20T09:17:02;99659.50;;;-7.38;68.49
69980;BME280;57318;56.232;43.944;2022-11-20T09:19:30;99668.09;;;-7.33;68.33
69980;BME280;57318;56.232;43.944;2022-11-20T09:21:56;99669.03;;;-7.57;68.86
69980;BME280;57318;56.232;43.944;2022-11-20T09:24:22;99662.16;;;-7.53;69.99
69980;BME280;57318;56.232;43.944;2022-11-20T09:26:47;99666.41;;;-7.40;69.74
69980;BME280;57318;56.232;43.944;2022-11-20T09:29:13;99662.09;;;-7.38;68.77
69980;BME280;57318;56.232;43.944;2022-11-20T09:31:39;99650.91;;;-7.31;69.07
69980;BME280;57318;56.232;43.944;2022-11-20T09:34:04;99656.03;;;-7.21;68.60
69980;BME280;57318;56.232;43.944;2022-11-20T09:36:30;99646.53;;;-7.22;69.02
69980;BME280;57318;56.232;43.944;2022-11-20T09:38:56;99639.59;;;-7.08;68.14
69980;BME280;57318;56.232;43.944;2022-11-20T09:52:55;99657.50;;;-6.74;66.78
69980;BME280;57318;56.232;43.944;2022-11-20T09:55:24;99659.06;;;-6.51;67.47
69980;BME280;57318;56.232;43.944;2022-11-20T09:57:51;99660.91;;;-6.69;66.42
69980;BME280;57318;56.232;43.944;2022-11-20T10:00:17;99656.75;;;-6.95;67.35
69980;BME280;57318;56.232;43.944;2022-11-20T10:03:01;99645.69;;;-7.21;67.56
69980;BME280;57318;56.232;43.944;2022-11-20T10:05:42;99641.34;;;-7.16;67.65
69980;BME280;57318;56.232;43.944;2022-11-20T10:08:28;99642.22;;;-7.17;67.91
69980;BME280;57318;56.232;43.944;2022-11-20T10:11:19;99643.91;;;-7.09;67.69
69980;BME280;57318;56.232;43.944;2022-11-20T10:19:29;99663.66;;;-7.01;67.35
69980;BME280;57318;56.232;43.944;2022-11-20T10:28:07;99650.81;;;-7.17;67.96
69980;BME280;57318;56.232;43.944;2022-11-20T10:30:40;99647.31;;;-7.02;68.14
69980;BME280;57318;56.232;43.944;2022-11-20T10:33:19;99656.78;;;-6.99;67.66
69980;BME280;57318;56.232;43.944;2022-11-20T10:36:05;99659.41;;;-7.09;67.32
69980;BME280;57318;56.232;43.944;2022-11-20T10:41:01;99668.13;;;-7.48;68.21
69980;BME280;57318;56.232;43.944;2022-11-20T10:43:46;99661.34;;;-7.83;69.22
69980;BME280;57318;56.232;43.944;2022-11-20T10:46:22;99661.34;;;-7.82;69.42
69980;BME280;57318;56.232;43.944;2022-11-20T10:48:49;99651.06;;;-8.02;70.02
69980;BME280;57318;56.232;43.944;2022-11-20T10:56:51;99652.78;;;-8.04;70.36
69980;BME280;57318;56.232;43.944;2022-11-20T10:59:47;99658.84;;;-8.16;71.02
69980;BME280;57318;56.232;43.944;2022-11-20T11:02:18;99652.81;;;-8.25;71.54
69980;BME280;57318;56.232;43.944;2022-11-20T11:04:47;99657.94;;;-8.08;70.82
69980;BME280;57318;56.232;43.944;2022-11-20T11:07:27;99664.00;;;-8.12;70.74
69980;BME280;57318;56.232;43.944;2022-11-20T11:09:55;99652.78;;;-8.01;70.92
69980;BME280;57318;56.232;43.944;2022-11-20T11:12:24;99647.63;;;-8.13;70.30
69980;BME280;57318;56.232;43.944;2022-11-20T11:14:55;99651.09;;;-8.05;70.36
69980;BME280;57318;56.232;43.944;2022-11-20T11:17:32;99639.06;;;-8.09;70.80
69980;BME280;57318;56.232;43.944;2022-11-20T11:19:59;99636.47;;;-8.00;71.84
69980;BME280;57318;56.232;43.944;2022-11-20T11:22:25;99645.03;;;-7.93;70.12
69980;BME280;57318;56.232;43.944;2022-11-20T11:24:53;99644.19;;;-7.86;70.29
69980;BME280;57318;56.232;43.944;2022-11-20T11:27:19;99639.88;;;-7.85;69.41
69980;BME280;57318;56.232;43.944;2022-11-20T11:29:45;99651.94;;;-7.93;69.77
69980;BME280;57318;56.232;43.944;2022-11-20T11:32:12;99661.38;;;-7.89;70.17
69980;BME280;57318;56.232;43.944;2022-11-20T11:34:38;99662.22;;;-7.78;70.48
69980;BME280;57318;56.232;43.944;2022-11-20T11:37:10;99668.22;;;-7.62;70.82
69980;BME280;57318;56.232;43.944;2022-11-20T11:39:41;99660.34;;;-7.36;70.12
69980;BME280;57318;56.232;43.944;2022-11-20T11:42:12;99657.91;;;-7.70;68.79
69980;BME280;57318;56.232;43.944;2022-11-20T11:44:44;99682.00;;;-7.80;68.58
69980;BME280;57318;56.232;43.944;2022-11-20T11:47:30;99680.28;;;-7.78;69.48
69980;BME280;57318;56.232;43.944;2022-11-20T11:50:14;99678.56;;;-7.74;69.65
69980;BME280;57318;56.232;43.944;2022-11-20T12:01:03;99675.06;;;-7.59;69.49
69980;BME280;57318;56.232;43.944;2022-11-20T12:03:36;99673.38;;;-7.67;68.73
69980;BME280;57318;56.232;43.944;2022-11-20T12:06:11;99679.41;;;-7.77;68.88
69980;BME280;57318;56.232;43.944;2022-11-20T12:09:05;99697.47;;;-7.77;69.62
69980;BME280;57318;56.232;43.944;2022-11-20T12:14:39;99706.94;;;-7.87;69.80
69980;BME280;57318;56.232;43.944;2022-11-20T12:17:10;99700.94;;;-7.92;70.14
69980;BME280;57318;56.232;43.944;2022-11-20T12:19:37;99698.34;;;-7.89;69.55
69980;BME280;57318;56.232;43.944;2022-11-20T12:30:22;99719.84;;;-7.76;70.02
69980;BME280;57318;56.232;43.944;2022-11-20T12:38:58;99694.94;;;-8.05;71.58
69980;BME280;57318;56.232;43.944;2022-11-20T12:41:47;99712.94;;;-8.03;71.48
69980;BME280;57318;56.232;43.944;2022-11-20T12:53:01;99715.56;;;-8.05;71.25
69980;BME280;57318;56.232;43.944;2022-11-20T12:58:27;99712.09;;;-8.22;71.26
69980;BME280;57318;56.232;43.944;2022-11-20T13:04:12;99724.13;;;-8.32;72.68
69980;BME280;57318;56.232;43.944;2022-11-20T13:06:40;99725.00;;;-8.31;72.88
69980;BME280;57318;56.232;43.944;2022-11-20T13:09:12;99727.56;;;-8.13;72.47
69980;BME280;57318;56.232;43.944;2022-11-20T13:17:14;99737.91;;;-7.87;72.33
69980;BME280;57318;56.232;43.944;2022-11-20T13:19:48;99728.41;;;-7.72;72.02
69980;BME280;57318;56.232;43.944;2022-11-20T13:22:28;99730.16;;;-7.70;70.65
69980;BME280;57318;56.232;43.944;2022-11-20T13:24:53;99726.69;;;-7.72;71.15
69980;BME280;57318;56.232;43.944;2022-11-20T13:27:21;99728.41;;;-7.74;70.87
69980;BME280;57318;56.232;43.944;2022-11-20T13:32:47;99736.97;;;-7.53;70.60
69980;BME280;57318;56.232;43.944;2022-11-20T13:35:27;99728.38;;;-7.46;70.92
69980;BME280;57318;56.232;43.944;2022-11-20T13:38:02;99738.72;;;-7.49;70.50
69980;BME280;57318;56.232;43.944;2022-11-20T13:40:28;99742.97;;;-7.36;70.40
69980;BME280;57318;56.232;43.944;2022-11-20T13:45:26;99750.78;;;-7.51;70.27
69980;BME280;57318;56.232;43.944;2022-11-20T13:47:54;99758.50;;;-7.56;70.53
69980;BME280;57318;56.232;43.944;2022-11-20T13:54:00;99761.09;;;-7.59;70.53
69980;BME280;57318;56.232;43.944;2022-11-20T14:01:50;99741.28;;;-7.43;70.46
69980;BME280;57318;56.232;43.944;2022-11-20T14:04:22;99725.81;;;-7.57;71.02
69980;BME280;57318;56.232;43.944;2022-11-20T14:06:51;99734.41;;;-7.55;71.03
69980;BME280;57318;56.232;43.944;2022-11-20T14:09:31;99737.88;;;-7.54;71.18
69980;BME280;57318;56.232;43.944;2022-11-20T14:11:58;99736.13;;;-7.52;70.70
69980;BME280;57318;56.232;43.944;2022-11-20T14:14:26;99744.72;;;-7.46;70.96
69980;BME280;57318;56.232;43.944;2022-11-20T14:17:34;99744.69;;;-7.26;70.80
69980;BME280;57318;56.232;43.944;2022-11-20T14:20:12;99751.59;;;-7.40;70.87
69980;BME280;57318;56.232;43.944;2022-11-20T14:22:48;99761.03;;;-7.30;70.78
69980;BME280;57318;56.232;43.944;2022-11-20T14:27:42;99752.44;;;-7.32;69.71
69980;BME280;57318;56.232;43.944;2022-11-20T14:30:15;99754.16;;;-7.32;69.58
69980;BME280;57318;56.232;43.944;2022-11-20T14:32:44;99756.75;;;-7.37;69.68